KJ4EWA Weather Reports


Display with metric or nautical units.
time (UTC)temp
F
wind
direction
speed
MPH
gust
MPH
rain 1hr
in
rain 24hr
in
rain mn
in
humidity
%
barometer
mb
20260504050646 50 81 0.0 0.0 0.00 0.00 0.00 99 1022.1
20260504050143 50 81 0.0 0.0 0.00 0.00 0.00 99 1022.1
20260504045641 50 26 0.0 1.0 0.00 0.01 0.01 99 1022.2
20260504045141 50 21 0.0 2.0 0.00 0.01 0.01 99 1022.1
20260504044639 51 75 0.0 1.0 0.00 0.01 0.01 99 1022.1
20260504044135 51 23 1.0 3.0 0.00 0.01 0.01 99 1022.3
20260504043632 50 90 0.0 0.0 0.00 0.01 0.01 99 1022.0
20260504043130 50 90 0.0 1.0 0.00 0.01 0.01 99 1022.3
20260504042627 50 74 0.0 0.0 0.00 0.01 0.01 99 1022.4
20260504042123 51 48 0.0 0.0 0.00 0.01 0.01 98 1022.1
20260504041619 51 8 0.0 1.0 0.00 0.01 0.01 98 1022.0
20260504041115 51 90 0.0 0.0 0.00 0.01 0.01 98 1022.0
20260504040613 51 15 0.0 0.0 0.00 0.01 0.01 98 1021.8
20260504040110 51 75 0.0 0.0 0.00 0.01 0.01 97 1022.0
20260504035607 51 75 0.0 0.0 0.00 0.01 0.01 97 1021.9
20260504035103 51 75 0.0 0.0 0.00 0.01 0.01 97 1022.3
20260504034601 51 75 0.0 0.0 0.00 0.01 0.01 96 1022.1
20260504034057 52 75 0.0 0.0 0.00 0.01 0.01 96 1022.1
20260504033555 52 75 0.0 0.0 0.00 0.01 0.01 96 1021.6
20260504033052 52 8 0.0 0.0 0.00 0.01 0.01 95 1022.0
20260504032549 52 8 0.0 0.0 0.00 0.01 0.01 95 1022.0
20260504032046 52 8 0.0 0.0 0.00 0.01 0.01 95 1022.0
20260504031543 53 8 0.0 0.0 0.00 0.01 0.01 94 1022.1
20260504031039 53 8 0.0 0.0 0.00 0.01 0.01 94 1022.5
20260504030536 53 8 0.0 0.0 0.00 0.01 0.01 94 1022.5
20260504030033 53 8 0.0 0.0 0.00 0.01 0.01 94 1022.1
20260504025530 53 7 0.0 1.0 0.00 0.01 0.01 93 1022.2
20260504025027 53 0 0.0 0.0 0.00 0.01 0.01 92 1022.1
20260504024524 54 0 0.0 0.0 0.00 0.01 0.01 92 1022.2
20260504024020 54 0 0.0 0.0 0.00 0.01 0.01 91 1021.9
20260504023517 54 0 0.0 0.0 0.00 0.01 0.01 91 1022.0
20260504023013 55 0 0.0 0.0 0.00 0.01 0.01 91 1022.0
20260504022509 55 0 0.0 0.0 0.00 0.01 0.01 90 1021.9
20260504022006 55 0 0.0 0.0 0.00 0.01 0.01 90 1021.8
20260504021504 56 0 0.0 0.0 0.00 0.01 0.01 89 1021.7
20260504021000 56 0 0.0 0.0 0.00 0.01 0.01 88 1021.7
20260504020456 56 352 0.0 1.0 0.00 0.01 0.01 88 1021.5
20260504015953 56 0 0.0 0.0 0.00 0.01 0.01 89 1021.6
20260504015450 56 0 0.0 1.0 0.00 0.01 0.01 88 1021.4
20260504014945 57 352 0.0 0.0 0.00 0.01 0.01 88 1021.4
20260504014442 57 352 0.0 0.0 0.00 0.01 0.01 87 1021.6
20260504013938 58 352 0.0 0.0 0.00 0.01 0.01 85 1021.5
20260504013437 58 352 0.0 0.0 0.00 0.01 0.01 84 1021.3
20260504012932 58 352 0.0 0.0 0.00 0.01 0.01 85 1021.1
20260504012431 59 352 0.0 0.0 0.00 0.01 0.01 83 1021.3
20260504011928 59 352 0.0 0.0 0.00 0.01 0.01 81 1021.3
20260504011425 59 352 0.0 0.0 0.00 0.01 0.01 84 1021.0
20260504010920 60 352 0.0 0.0 0.00 0.01 0.01 83 1021.2
20260504010416 60 352 0.0 0.0 0.00 0.01 0.01 83 1020.9
20260504005913 61 352 0.0 0.0 0.00 0.01 0.01 82 1020.8
20260504005409 62 352 0.0 0.0 0.00 0.01 0.01 81 1020.8
20260504004908 62 352 0.0 0.0 0.00 0.01 0.01 79 1020.9
20260504004405 62 352 0.0 0.0 0.00 0.01 0.01 76 1020.7
20260504003901 63 352 0.0 0.0 0.00 0.01 0.01 77 1020.8
20260504003358 64 352 0.0 0.0 0.00 0.01 0.01 77 1020.7
20260504002855 65 352 0.0 0.0 0.00 0.01 0.01 75 1020.4
20260504002351 66 352 0.0 0.0 0.00 0.01 0.01 74 1020.6
20260504001849 66 352 0.0 0.0 0.00 0.01 0.01 72 1020.4
20260504001346 67 352 0.0 0.0 0.00 0.01 0.01 71 1020.5
20260504000838 68 352 0.0 0.0 0.00 0.01 0.01 67 1020.5
20260504000335 69 263 0.0 0.0 0.00 0.01 0.01 66 1020.4
20260503235832 70 263 0.0 0.0 0.00 0.01 0.01 63 1020.4
20260503235329 70 263 0.0 0.0 0.00 0.01 0.01 60 1020.6
20260503234827 71 263 0.0 2.0 0.00 0.01 0.01 60 1020.4
20260503234324 72 336 0.0 0.0 0.00 0.01 0.01 57 1020.3
20260503233822 73 336 0.0 0.0 0.00 0.01 0.01 54 1020.4
20260503233318 74 334 1.0 2.0 0.00 0.01 0.01 48 1020.5
20260503232815 74 345 0.0 0.0 0.00 0.01 0.01 52 1020.4
20260503232312 75 270 0.0 2.0 0.00 0.01 0.01 49 1020.4
20260503231810 75 337 0.0 3.0 0.00 0.01 0.01 46 1020.9
20260503231307 76 337 0.0 5.0 0.00 0.01 0.01 44 1020.4
20260503230803 79 324 5.0 5.0 0.00 0.01 0.01 40 1020.5
20260503230300 79 312 4.0 5.0 0.00 0.01 0.01 39 1020.6
20260503225757 81 279 0.0 4.0 0.00 0.01 0.01 42 1020.6
20260503225253 79 315 0.0 0.0 0.00 0.01 0.01 45 1020.3
20260503224749 79 255 2.0 6.0 0.00 0.01 0.01 39 1020.2
20260503224247 78 279 2.0 5.0 0.00 0.01 0.01 40 1020.5
20260503223745 80 328 2.0 4.0 0.00 0.01 0.01 37 1020.2
20260503223242 81 330 2.0 3.0 0.00 0.01 0.01 36 1020.3
20260503222738 80 325 1.0 2.0 0.00 0.01 0.01 39 1020.3
20260503222236 79 270 1.0 5.0 0.00 0.01 0.01 39 1020.3
20260503221734 79 331 3.0 6.0 0.00 0.01 0.01 39 1020.3
20260503221232 79 290 3.0 8.0 0.00 0.01 0.01 37 1020.1
20260503220728 80 282 2.0 7.0 0.00 0.01 0.01 43 1020.2
20260503220225 80 245 0.0 5.0 0.00 0.01 0.01 46 1020.5
20260503215722 79 262 0.0 2.0 0.00 0.01 0.01 37 1020.5
20260503215219 81 264 0.0 4.0 0.00 0.01 0.01 42 1020.3
20260503214717 80 289 3.0 5.0 0.00 0.01 0.01 36 1020.6
20260503214213 79 160 0.0 1.0 0.00 0.01 0.01 35 1020.7
20260503213712 80 338 2.0 5.0 0.00 0.01 0.01 38 1020.5
20260503213208 81 297 0.0 7.0 0.00 0.01 0.01 43 1020.7
20260503212705 81 270 2.0 4.0 0.00 0.01 0.01 36 1020.7
20260503212203 81 348 4.0 5.0 0.00 0.01 0.01 39 1020.7
20260503211701 81 294 3.0 3.0 0.00 0.01 0.01 40 1020.7
20260503211156 79 345 0.0 10.0 0.00 0.01 0.01 41 1020.8
20260503210652 78 340 7.0 11.0 0.00 0.01 0.01 37 1020.8
20260503210149 80 319 2.0 7.0 0.00 0.01 0.01 36 1020.9
20260503205644 81 311 0.0 3.0 0.00 0.01 0.01 39 1021.0
20260503205141 81 349 0.0 9.0 0.00 0.01 0.01 46 1020.7
20260503204638 79 317 6.0 9.0 0.00 0.01 0.01 37 1021.0
20260503204136 81 289 0.0 3.0 0.00 0.01 0.01 40 1021.1
20260503203632 81 103 0.0 4.0 0.00 0.01 0.01 43 1021.3
20260503203130 80 315 4.0 5.0 0.00 0.01 0.01 36 1021.3
20260503202627 81 180 0.0 4.0 0.00 0.01 0.01 40 1021.3
20260503202125 82 99 0.0 3.0 0.00 0.01 0.01 37 1021.1
20260503201623 82 289 0.0 2.0 0.00 0.01 0.01 40 1021.2
20260503201120 81 234 0.0 4.0 0.00 0.01 0.01 41 1021.5
20260503200616 78 289 1.0 9.0 0.00 0.01 0.01 39 1021.6
20260503200113 80 251 3.0 7.0 0.00 0.01 0.01 39 1021.4
20260503195610 81 289 0.0 6.0 0.00 0.01 0.01 43 1021.6
20260503195106 79 213 4.0 5.0 0.00 0.01 0.01 37 1021.8
20260503194603 79 307 5.0 9.0 0.00 0.01 0.01 39 1021.7
20260503194058 80 297 3.0 7.0 0.00 0.01 0.01 36 1021.8
20260503193555 80 288 5.0 8.0 0.00 0.01 0.01 38 1022.1
20260503193051 80 273 4.0 5.0 0.00 0.01 0.01 39 1022.2
20260503192547 80 217 0.0 6.0 0.00 0.01 0.01 41 1022.3
20260503192043 80 240 2.0 3.0 0.00 0.01 0.01 43 1022.5
20260503191539 79 290 5.0 5.0 0.00 0.01 0.01 39 1022.5
20260503191036 80 346 3.0 7.0 0.00 0.01 0.01 40 1022.9
20260503190533 78 101 0.0 5.0 0.00 0.01 0.01 42 1023.0
20260503190030 78 352 2.0 7.0 0.00 0.01 0.01 41 1022.8
20260503185527 78 233 2.0 3.0 0.00 0.01 0.01 36 1022.8
20260503185021 78 203 2.0 6.0 0.00 0.01 0.01 36 1023.1
20260503184518 80 289 3.0 4.0 0.00 0.01 0.01 37 1023.1
20260503184014 79 289 3.0 3.0 0.00 0.01 0.01 36 1022.9
20260503183511 78 250 2.0 5.0 0.00 0.01 0.01 41 1023.0
20260503183008 79 309 6.0 6.0 0.00 0.01 0.01 42 1023.1
20260503182507 77 297 3.0 8.0 0.00 0.01 0.01 40 1023.2
20260503182005 78 326 2.0 4.0 0.00 0.01 0.01 40 1023.5
20260503181501 79 270 3.0 7.0 0.00 0.01 0.01 43 1023.5
20260503180956 78 315 2.0 6.0 0.00 0.01 0.01 41 1023.4
20260503180455 79 313 3.0 3.0 0.00 0.01 0.01 40 1023.3
20260503175951 78 251 0.0 5.0 0.00 0.01 0.01 39 1023.3
20260503175450 79 230 3.0 3.0 0.00 0.01 0.01 42 1023.3
20260503174945 79 180 0.0 4.0 0.00 0.01 0.01 47 1023.4
20260503174443 79 278 3.0 4.0 0.00 0.01 0.01 47 1023.4
20260503173938 78 96 2.0 4.0 0.00 0.01 0.01 43 1023.8
20260503173434 78 151 0.0 2.0 0.00 0.01 0.01 40 1023.6
20260503172931 77 90 0.0 9.0 0.00 0.01 0.01 45 1023.6
20260503172429 78 254 1.0 5.0 0.00 0.01 0.01 39 1023.6
20260503171925 78 331 0.0 4.0 0.00 0.01 0.01 45 1024.1
20260503171422 78 303 2.0 4.0 0.00 0.01 0.01 42 1023.8
20260503170920 77 331 0.0 6.0 0.00 0.01 0.01 45 1024.0
20260503170415 77 307 3.0 3.0 0.00 0.01 0.01 47 1024.0
20260503150808 72 270 0.0 6.0 0.00 0.01 0.01 61 1025.1
20260503150304 71 303 2.0 6.0 0.00 0.01 0.01 53 1025.3
20260503140228 61 320 0.0 2.0 0.00 0.01 0.01 88 1024.7
20260503131158 52 0 0.0 1.0 0.00 0.00 0.00 99 1024.1
20260503130655 51 0 1.0 1.0 0.00 0.00 0.00 99 1024.3
20260503130153 50 15 0.0 1.0 0.00 0.00 0.00 99 1024.0
20260503120118 42 74 0.0 0.0 0.00 0.00 0.00 99 1024.1
20260503110545 41 82 0.0 2.0 0.00 0.00 0.00 99 1023.4
20260503090426 42 105 0.0 0.0 0.00 0.00 0.00 99 1022.5
20260503081353 43 74 0.0 1.0 0.00 0.00 0.00 99 1022.1
20260503080850 43 0 0.0 1.0 0.00 0.00 0.00 99 1022.2
20260503080347 43 75 0.0 0.0 0.00 0.00 0.00 99 1022.3
20260503072823 44 75 0.0 1.0 0.00 0.00 0.00 99 1022.1
20260503072320 43 75 0.0 0.0 0.00 0.00 0.00 99 1022.3
20260503071816 44 71 0.0 0.0 0.00 0.00 0.00 99 1022.2
20260503071314 44 90 0.0 1.0 0.02 0.00 0.00 99 1022.1
20260503070809 44 29 0.0 1.0 0.02 0.00 0.00 99 1022.2
20260503070302 44 82 0.0 0.0 0.00 0.00 0.00 99 1022.0
20260503060227 45 74 0.0 0.0 0.00 0.00 0.00 99 1022.0
20260503054714 46 75 0.0 0.0 0.00 0.00 0.00 99 1021.7
20260503054211 46 75 0.0 1.0 0.00 0.00 0.00 99 1021.9
20260503053709 46 23 0.0 0.0 0.00 0.00 0.00 99 1021.9
20260503053208 46 66 0.0 1.0 0.00 0.00 0.00 99 1022.0
20260503052703 46 82 0.0 1.0 0.00 0.00 0.00 99 1021.7